Speaks, Texas
Current Conditions -  °F | °C
As of 6:15 AM on Monday 20 Oct 2014 (Local Time) from K66R Reporting Station
Haze Haze  
Wind Chill: 62°   Ceiling: Unl
Heat Index: 62°   Visibility: 5mi
Dew Point: 61°   Wind: 3mph
Humidity: 98%   Direction: 350°N
Pressure: 30.01"   Gusts: NA
Location:  29.25°N, 96.7°W
Report Text: K66R 201115Z AUTO 35003KT 5SM BR CLR 16/16 A3001 RMK AO2 T01640161
Loading
Personal Weather Stations






























Interactive Weather Map
Tropical Storm Tracking
New forecast layout! Learn more

10-Day Weather Forecast

Advertisements
Track Severe Weather on mobile